sensor_id;sensor_type;location;lat;lon;timestamp;P1;P2;P0
69222;PMS7003;56514;51.816;-0.026;2023-02-13T00:00:15;14.50;14.50;8.50
69222;PMS7003;56514;51.816;-0.026;2023-02-13T00:03:22;16.25;15.25;9.75
69222;PMS7003;56514;51.816;-0.026;2023-02-13T00:06:29;13.25;13.25;8.75
69222;PMS7003;56514;51.816;-0.026;2023-02-13T00:09:33;12.00;12.00;9.33
69222;PMS7003;56514;51.816;-0.026;2023-02-13T00:12:43;15.25;13.75;9.00
69222;PMS7003;56514;51.816;-0.026;2023-02-13T00:15:56;18.25;17.00;9.00
69222;PMS7003;56514;51.816;-0.026;2023-02-13T00:19:03;12.00;12.00;9.00
69222;PMS7003;56514;51.816;-0.026;2023-02-13T00:22:12;12.25;12.00;7.00
69222;PMS7003;56514;51.816;-0.026;2023-02-13T00:25:24;16.75;16.75;10.00
69222;PMS7003;56514;51.816;-0.026;2023-02-13T00:28:33;21.00;19.00;10.00
69222;PMS7003;56514;51.816;-0.026;2023-02-13T00:31:43;18.50;14.75;11.50
69222;PMS7003;56514;51.816;-0.026;2023-02-13T00:34:53;17.50;15.75;12.25
69222;PMS7003;56514;51.816;-0.026;2023-02-13T00:38:03;20.67;19.33;10.67
69222;PMS7003;56514;51.816;-0.026;2023-02-13T00:41:12;12.67;12.67;9.67
69222;PMS7003;56514;51.816;-0.026;2023-02-13T00:44:22;16.00;16.00;10.00
69222;PMS7003;56514;51.816;-0.026;2023-02-13T00:47:08;21.33;21.33;14.33
69222;PMS7003;56514;51.816;-0.026;2023-02-13T00:49:53;20.33;20.33;15.00
69222;PMS7003;56514;51.816;-0.026;2023-02-13T00:52:38;25.00;23.00;13.33
69222;PMS7003;56514;51.816;-0.026;2023-02-13T00:55:22;23.33;21.67;12.67
69222;PMS7003;56514;51.816;-0.026;2023-02-13T00:58:08;30.67;26.33;15.33
69222;PMS7003;56514;51.816;-0.026;2023-02-13T01:00:53;19.25;19.25;12.75
69222;PMS7003;56514;51.816;-0.026;2023-02-13T01:03:38;18.75;17.25;11.75
69222;PMS7003;56514;51.816;-0.026;2023-02-13T01:06:23;24.33;18.67;13.00
69222;PMS7003;56514;51.816;-0.026;2023-02-13T01:09:09;22.50;19.50;12.25
69222;PMS7003;56514;51.816;-0.026;2023-02-13T01:11:55;26.33;24.00;13.00
69222;PMS7003;56514;51.816;-0.026;2023-02-13T01:14:39;23.67;22.67;11.67
69222;PMS7003;56514;51.816;-0.026;2023-02-13T01:17:24;28.33;24.33;12.33
69222;PMS7003;56514;51.816;-0.026;2023-02-13T01:20:10;27.00;27.00;13.00
69222;PMS7003;56514;51.816;-0.026;2023-02-13T01:22:56;21.00;20.00;13.75
69222;PMS7003;56514;51.816;-0.026;2023-02-13T01:25:41;27.33;25.00;12.67
69222;PMS7003;56514;51.816;-0.026;2023-02-13T01:28:26;28.67;27.33;15.33
69222;PMS7003;56514;51.816;-0.026;2023-02-13T01:31:11;33.00;31.33;16.00
69222;PMS7003;56514;51.816;-0.026;2023-02-13T01:33:56;27.67;26.33;15.00
69222;PMS7003;56514;51.816;-0.026;2023-02-13T01:36:42;33.33;29.33;15.00
69222;PMS7003;56514;51.816;-0.026;2023-02-13T01:39:26;38.33;32.33;15.00
69222;PMS7003;56514;51.816;-0.026;2023-02-13T01:42:15;29.00;27.67;17.33
69222;PMS7003;56514;51.816;-0.026;2023-02-13T01:45:20;29.67;27.33;15.67
69222;PMS7003;56514;51.816;-0.026;2023-02-13T01:48:21;25.00;24.33;15.33
69222;PMS7003;56514;51.816;-0.026;2023-02-13T01:51:11;32.67;26.33;15.00
69222;PMS7003;56514;51.816;-0.026;2023-02-13T01:54:03;23.67;22.33;12.67
69222;PMS7003;56514;51.816;-0.026;2023-02-13T01:56:53;27.33;24.00;15.00
69222;PMS7003;56514;51.816;-0.026;2023-02-13T02:02:40;25.33;22.67;12.00
69222;PMS7003;56514;51.816;-0.026;2023-02-13T02:05:30;24.33;22.33;13.33
69222;PMS7003;56514;51.816;-0.026;2023-02-13T02:08:18;38.67;35.33;18.00
69222;PMS7003;56514;51.816;-0.026;2023-02-13T02:11:40;30.33;30.00;17.33
69222;PMS7003;56514;51.816;-0.026;2023-02-13T02:14:23;38.00;37.00;19.33
69222;PMS7003;56514;51.816;-0.026;2023-02-13T02:17:10;38.67;32.00;16.67
69222;PMS7003;56514;51.816;-0.026;2023-02-13T02:20:03;33.00;28.33;15.67
69222;PMS7003;56514;51.816;-0.026;2023-02-13T02:23:24;24.00;24.00;17.33
69222;PMS7003;56514;51.816;-0.026;2023-02-13T02:35:42;39.33;37.67;17.33
69222;PMS7003;56514;51.816;-0.026;2023-02-13T02:47:33;45.67;38.00;21.33
69222;PMS7003;56514;51.816;-0.026;2023-02-13T02:54:21;43.75;37.00;22.50
69222;PMS7003;56514;51.816;-0.026;2023-02-13T02:57:27;43.67;38.00;19.00
69222;PMS7003;56514;51.816;-0.026;2023-02-13T03:00:36;48.33;45.00;19.67
69222;PMS7003;56514;51.816;-0.026;2023-02-13T03:03:45;29.00;29.00;18.00
69222;PMS7003;56514;51.816;-0.026;2023-02-13T03:06:51;44.00;39.00;18.33
69222;PMS7003;56514;51.816;-0.026;2023-02-13T03:09:44;39.33;36.67;17.33
69222;PMS7003;56514;51.816;-0.026;2023-02-13T03:13:05;36.67;35.33;17.33
69222;PMS7003;56514;51.816;-0.026;2023-02-13T03:16:09;47.33;44.33;22.67
69222;PMS7003;56514;51.816;-0.026;2023-02-13T03:19:26;55.33;47.33;22.67
69222;PMS7003;56514;51.816;-0.026;2023-02-13T03:22:52;43.67;41.33;21.00
69222;PMS7003;56514;51.816;-0.026;2023-02-13T03:32:24;42.33;40.67;20.33
69222;PMS7003;56514;51.816;-0.026;2023-02-13T03:35:24;41.67;31.33;13.00
69222;PMS7003;56514;51.816;-0.026;2023-02-13T03:47:52;29.33;25.00;12.00
69222;PMS7003;56514;51.816;-0.026;2023-02-13T03:50:40;21.33;19.67;10.00
69222;PMS7003;56514;51.816;-0.026;2023-02-13T03:53:27;20.67;20.33;12.67
69222;PMS7003;56514;51.816;-0.026;2023-02-13T03:56:14;28.00;25.00;14.33
69222;PMS7003;56514;51.816;-0.026;2023-02-13T03:59:22;26.67;26.67;16.00
69222;PMS7003;56514;51.816;-0.026;2023-02-13T04:02:16;29.67;29.33;15.33
69222;PMS7003;56514;51.816;-0.026;2023-02-13T04:05:10;31.67;31.67;18.00
69222;PMS7003;56514;51.816;-0.026;2023-02-13T04:08:02;30.67;23.33;12.00
69222;PMS7003;56514;51.816;-0.026;2023-02-13T04:10:52;31.00;30.67;14.33
69222;PMS7003;56514;51.816;-0.026;2023-02-13T04:16:38;30.67;29.00;15.67
69222;PMS7003;56514;51.816;-0.026;2023-02-13T04:19:26;24.00;24.00;12.00
69222;PMS7003;56514;51.816;-0.026;2023-02-13T04:22:11;25.67;20.67;12.00
69222;PMS7003;56514;51.816;-0.026;2023-02-13T04:24:56;34.33;29.00;13.00
69222;PMS7003;56514;51.816;-0.026;2023-02-13T04:27:41;31.00;30.00;15.00
69222;PMS7003;56514;51.816;-0.026;2023-02-13T04:30:26;23.00;23.00;12.67
69222;PMS7003;56514;51.816;-0.026;2023-02-13T04:33:11;22.00;20.33;12.00
69222;PMS7003;56514;51.816;-0.026;2023-02-13T04:35:56;18.67;18.67;12.00
69222;PMS7003;56514;51.816;-0.026;2023-02-13T04:38:41;22.33;21.67;10.00
69222;PMS7003;56514;51.816;-0.026;2023-02-13T04:41:26;21.00;21.00;12.67
69222;PMS7003;56514;51.816;-0.026;2023-02-13T04:44:11;22.67;22.67;12.00
69222;PMS7003;56514;51.816;-0.026;2023-02-13T04:46:56;13.00;13.00;10.00
69222;PMS7003;56514;51.816;-0.026;2023-02-13T04:49:40;22.00;21.25;10.00
69222;PMS7003;56514;51.816;-0.026;2023-02-13T04:52:25;24.33;18.67;10.67
69222;PMS7003;56514;51.816;-0.026;2023-02-13T04:55:10;18.33;17.33;11.33
69222;PMS7003;56514;51.816;-0.026;2023-02-13T04:57:54;15.67;15.67;9.67
69222;PMS7003;56514;51.816;-0.026;2023-02-13T05:00:40;16.00;16.00;10.67
69222;PMS7003;56514;51.816;-0.026;2023-02-13T05:03:24;19.33;19.33;9.33
69222;PMS7003;56514;51.816;-0.026;2023-02-13T05:06:09;15.50;15.50;9.00
69222;PMS7003;56514;51.816;-0.026;2023-02-13T05:08:54;18.33;18.33;11.33
69222;PMS7003;56514;51.816;-0.026;2023-02-13T05:11:39;19.67;15.33;9.00
69222;PMS7003;56514;51.816;-0.026;2023-02-13T05:14:24;25.00;23.33;10.67
69222;PMS7003;56514;51.816;-0.026;2023-02-13T05:17:08;13.00;13.00;10.67
69222;PMS7003;56514;51.816;-0.026;2023-02-13T05:19:53;18.00;18.00;9.75
69222;PMS7003;56514;51.816;-0.026;2023-02-13T05:22:48;21.00;19.67;9.00
69222;PMS7003;56514;51.816;-0.026;2023-02-13T05:25:53;19.67;19.67;10.00
69222;PMS7003;56514;51.816;-0.026;2023-02-13T05:28:38;16.00;16.00;6.00
69222;PMS7003;56514;51.816;-0.026;2023-02-13T05:31:41;21.75;17.00;10.00
69222;PMS7003;56514;51.816;-0.026;2023-02-13T05:34:27;19.00;19.00;9.50
69222;PMS7003;56514;51.816;-0.026;2023-02-13T05:37:12;24.50;21.25;11.00
69222;PMS7003;56514;51.816;-0.026;2023-02-13T05:39:57;21.00;21.00;10.00
69222;PMS7003;56514;51.816;-0.026;2023-02-13T05:42:42;13.00;12.00;7.00
69222;PMS7003;56514;51.816;-0.026;2023-02-13T05:45:27;22.33;18.33;11.33
69222;PMS7003;56514;51.816;-0.026;2023-02-13T05:48:11;19.00;19.00;11.50
69222;PMS7003;56514;51.816;-0.026;2023-02-13T05:50:56;12.75;12.75;9.00
69222;PMS7003;56514;51.816;-0.026;2023-02-13T05:53:41;16.75;16.75;7.00
69222;PMS7003;56514;51.816;-0.026;2023-02-13T05:56:26;23.00;19.67;13.67
69222;PMS7003;56514;51.816;-0.026;2023-02-13T05:59:11;11.33;11.33;6.67
69222;PMS7003;56514;51.816;-0.026;2023-02-13T06:01:56;24.00;19.00;8.33
69222;PMS7003;56514;51.816;-0.026;2023-02-13T06:04:41;21.33;18.33;12.33
69222;PMS7003;56514;51.816;-0.026;2023-02-13T06:07:26;21.33;18.33;12.00
69222;PMS7003;56514;51.816;-0.026;2023-02-13T06:10:11;13.33;13.33;10.33
69222;PMS7003;56514;51.816;-0.026;2023-02-13T06:12:55;15.75;15.25;9.25
69222;PMS7003;56514;51.816;-0.026;2023-02-13T06:15:40;18.33;18.33;9.33
69222;PMS7003;56514;51.816;-0.026;2023-02-13T06:18:25;17.67;16.33;12.00
69222;PMS7003;56514;51.816;-0.026;2023-02-13T06:21:10;21.00;19.00;10.00
69222;PMS7003;56514;51.816;-0.026;2023-02-13T06:23:55;15.25;15.25;10.00
69222;PMS7003;56514;51.816;-0.026;2023-02-13T06:26:40;20.75;20.75;11.00
69222;PMS7003;56514;51.816;-0.026;2023-02-13T06:29:24;28.67;24.33;10.67
69222;PMS7003;56514;51.816;-0.026;2023-02-13T06:32:09;16.00;16.00;10.00
69222;PMS7003;56514;51.816;-0.026;2023-02-13T06:34:54;18.33;18.33;9.67
69222;PMS7003;56514;51.816;-0.026;2023-02-13T06:37:39;15.75;15.75;9.25
69222;PMS7003;56514;51.816;-0.026;2023-02-13T06:40:24;21.67;20.67;10.33
69222;PMS7003;56514;51.816;-0.026;2023-02-13T06:43:08;18.67;18.00;11.33
69222;PMS7003;56514;51.816;-0.026;2023-02-13T06:45:53;21.67;21.67;12.00
69222;PMS7003;56514;51.816;-0.026;2023-02-13T06:48:38;22.67;20.67;9.67
69222;PMS7003;56514;51.816;-0.026;2023-02-13T06:51:23;24.00;21.33;13.00
69222;PMS7003;56514;51.816;-0.026;2023-02-13T06:54:08;21.00;21.00;12.67
69222;PMS7003;56514;51.816;-0.026;2023-02-13T06:56:53;19.33;19.33;13.67
69222;PMS7003;56514;51.816;-0.026;2023-02-13T06:59:37;16.00;13.67;8.33
69222;PMS7003;56514;51.816;-0.026;2023-02-13T07:02:22;18.67;18.00;11.33
69222;PMS7003;56514;51.816;-0.026;2023-02-13T07:05:08;22.00;18.67;11.33
69222;PMS7003;56514;51.816;-0.026;2023-02-13T07:07:54;24.33;23.33;13.00
69222;PMS7003;56514;51.816;-0.026;2023-02-13T07:10:40;24.33;24.33;15.00
69222;PMS7003;56514;51.816;-0.026;2023-02-13T07:13:25;31.67;26.00;12.67
69222;PMS7003;56514;51.816;-0.026;2023-02-13T07:16:10;25.67;23.67;16.67
69222;PMS7003;56514;51.816;-0.026;2023-02-13T07:18:55;23.33;23.00;14.33
69222;PMS7003;56514;51.816;-0.026;2023-02-13T07:21:40;22.25;20.50;12.75
69222;PMS7003;56514;51.816;-0.026;2023-02-13T07:24:24;19.00;19.00;13.00
69222;PMS7003;56514;51.816;-0.026;2023-02-13T07:27:09;24.67;15.67;9.00
69222;PMS7003;56514;51.816;-0.026;2023-02-13T07:29:57;29.33;26.00;12.33
69222;PMS7003;56514;51.816;-0.026;2023-02-13T07:32:42;25.33;25.33;15.00
69222;PMS7003;56514;51.816;-0.026;2023-02-13T07:35:26;25.67;24.67;15.00
69222;PMS7003;56514;51.816;-0.026;2023-02-13T07:38:12;26.33;24.00;16.00
69222;PMS7003;56514;51.816;-0.026;2023-02-13T07:40:57;30.33;27.67;16.00
69222;PMS7003;56514;51.816;-0.026;2023-02-13T07:43:46;26.00;24.00;9.67
69222;PMS7003;56514;51.816;-0.026;2023-02-13T07:46:31;33.67;31.00;20.33
69222;PMS7003;56514;51.816;-0.026;2023-02-13T07:49:16;28.67;28.00;16.00
69222;PMS7003;56514;51.816;-0.026;2023-02-13T07:52:00;33.33;31.67;15.67
69222;PMS7003;56514;51.816;-0.026;2023-02-13T07:54:46;28.33;27.33;13.67
69222;PMS7003;56514;51.816;-0.026;2023-02-13T07:57:30;27.33;27.33;16.00
69222;PMS7003;56514;51.816;-0.026;2023-02-13T08:00:16;24.00;24.00;14.33
69222;PMS7003;56514;51.816;-0.026;2023-02-13T08:03:02;26.67;25.33;15.00
69222;PMS7003;56514;51.816;-0.026;2023-02-13T08:05:47;31.33;21.67;12.67
69222;PMS7003;56514;51.816;-0.026;2023-02-13T08:08:33;25.33;25.00;15.67
69222;PMS7003;56514;51.816;-0.026;2023-02-13T08:11:22;33.33;30.00;18.67
69222;PMS7003;56514;51.816;-0.026;2023-02-13T08:14:33;40.67;31.33;18.00
69222;PMS7003;56514;51.816;-0.026;2023-02-13T08:17:18;34.67;30.00;17.33
69222;PMS7003;56514;51.816;-0.026;2023-02-13T08:20:04;29.67;29.67;15.33
69222;PMS7003;56514;51.816;-0.026;2023-02-13T08:22:53;32.33;26.33;14.33
69222;PMS7003;56514;51.816;-0.026;2023-02-13T08:25:38;28.33;28.33;13.67
69222;PMS7003;56514;51.816;-0.026;2023-02-13T08:28:22;22.00;21.67;14.33
69222;PMS7003;56514;51.816;-0.026;2023-02-13T08:31:11;27.33;25.33;11.67
69222;PMS7003;56514;51.816;-0.026;2023-02-13T08:33:57;39.00;29.67;16.00
69222;PMS7003;56514;51.816;-0.026;2023-02-13T08:36:41;28.00;27.67;14.33
69222;PMS7003;56514;51.816;-0.026;2023-02-13T08:39:26;29.33;23.67;15.00
69222;PMS7003;56514;51.816;-0.026;2023-02-13T08:42:11;21.67;20.67;12.33
69222;PMS7003;56514;51.816;-0.026;2023-02-13T08:44:56;28.67;27.33;16.00
69222;PMS7003;56514;51.816;-0.026;2023-02-13T08:47:41;29.67;29.67;17.33
69222;PMS7003;56514;51.816;-0.026;2023-02-13T08:50:26;27.00;25.00;14.67
69222;PMS7003;56514;51.816;-0.026;2023-02-13T08:53:11;32.33;27.67;15.67
69222;PMS7003;56514;51.816;-0.026;2023-02-13T08:55:56;28.67;28.67;16.00
69222;PMS7003;56514;51.816;-0.026;2023-02-13T08:58:41;29.67;28.00;16.00
69222;PMS7003;56514;51.816;-0.026;2023-02-13T09:01:26;31.33;31.33;19.33
69222;PMS7003;56514;51.816;-0.026;2023-02-13T09:04:11;45.33;34.00;18.00
69222;PMS7003;56514;51.816;-0.026;2023-02-13T09:06:58;29.67;27.00;16.67
69222;PMS7003;56514;51.816;-0.026;2023-02-13T09:09:43;38.00;32.00;17.33
69222;PMS7003;56514;51.816;-0.026;2023-02-13T09:12:28;22.33;22.33;15.00
69222;PMS7003;56514;51.816;-0.026;2023-02-13T09:15:14;25.67;25.00;16.00
69222;PMS7003;56514;51.816;-0.026;2023-02-13T09:17:58;27.67;26.67;15.33
69222;PMS7003;56514;51.816;-0.026;2023-02-13T09:20:43;29.33;23.67;14.00
69222;PMS7003;56514;51.816;-0.026;2023-02-13T09:23:35;28.00;23.00;11.75
69222;PMS7003;56514;51.816;-0.026;2023-02-13T09:26:22;30.67;28.00;16.00
69222;PMS7003;56514;51.816;-0.026;2023-02-13T09:29:07;22.00;21.50;16.25
69222;PMS7003;56514;51.816;-0.026;2023-02-13T09:31:52;26.75;23.25;13.00
69222;PMS7003;56514;51.816;-0.026;2023-02-13T09:34:36;26.00;21.67;11.33
69222;PMS7003;56514;51.816;-0.026;2023-02-13T09:37:21;18.75;14.75;9.00
69222;PMS7003;56514;51.816;-0.026;2023-02-13T09:40:31;23.00;23.00;14.00
69222;PMS7003;56514;51.816;-0.026;2023-02-13T09:43:32;25.75;24.00;15.50
69222;PMS7003;56514;51.816;-0.026;2023-02-13T09:46:30;24.50;21.50;12.50
69222;PMS7003;56514;51.816;-0.026;2023-02-13T09:49:28;24.00;24.00;13.00
69222;PMS7003;56514;51.816;-0.026;2023-02-13T09:52:15;17.50;17.50;10.00
69222;PMS7003;56514;51.816;-0.026;2023-02-13T09:55:01;24.50;19.75;13.50
69222;PMS7003;56514;51.816;-0.026;2023-02-13T10:00:45;24.00;19.67;12.00
69222;PMS7003;56514;51.816;-0.026;2023-02-13T10:03:41;22.67;18.33;10.33
69222;PMS7003;56514;51.816;-0.026;2023-02-13T10:06:34;25.50;21.00;12.25
69222;PMS7003;56514;51.816;-0.026;2023-02-13T10:16:08;18.50;18.50;11.75
69222;PMS7003;56514;51.816;-0.026;2023-02-13T10:19:04;21.00;19.00;12.00
69222;PMS7003;56514;51.816;-0.026;2023-02-13T10:21:57;17.50;17.50;12.25
69222;PMS7003;56514;51.816;-0.026;2023-02-13T10:24:52;18.25;18.25;12.00
69222;PMS7003;56514;51.816;-0.026;2023-02-13T10:27:44;25.00;21.25;14.50
69222;PMS7003;56514;51.816;-0.026;2023-02-13T10:30:34;22.75;22.25;12.75
69222;PMS7003;56514;51.816;-0.026;2023-02-13T10:33:50;19.25;19.25;13.25
69222;PMS7003;56514;51.816;-0.026;2023-02-13T10:36:44;26.75;25.00;13.00
69222;PMS7003;56514;51.816;-0.026;2023-02-13T10:39:31;19.25;19.25;11.50
69222;PMS7003;56514;51.816;-0.026;2023-02-13T10:48:46;23.75;21.75;12.75
69222;PMS7003;56514;51.816;-0.026;2023-02-13T10:51:44;16.75;16.75;11.00
69222;PMS7003;56514;51.816;-0.026;2023-02-13T11:04:20;16.75;16.75;11.00
69222;PMS7003;56514;51.816;-0.026;2023-02-13T11:07:10;18.50;18.50;13.00
69222;PMS7003;56514;51.816;-0.026;2023-02-13T11:10:00;23.75;22.50;13.75
69222;PMS7003;56514;51.816;-0.026;2023-02-13T11:12:57;21.00;21.00;13.50
69222;PMS7003;56514;51.816;-0.026;2023-02-13T11:16:01;19.75;19.75;11.00
69222;PMS7003;56514;51.816;-0.026;2023-02-13T11:18:57;17.25;17.25;12.50
69222;PMS7003;56514;51.816;-0.026;2023-02-13T11:21:42;17.75;17.75;12.50
69222;PMS7003;56514;51.816;-0.026;2023-02-13T11:24:27;16.00;16.00;9.75
69222;PMS7003;56514;51.816;-0.026;2023-02-13T11:27:14;22.25;22.25;13.75
69222;PMS7003;56514;51.816;-0.026;2023-02-13T11:30:05;14.50;14.50;10.00
69222;PMS7003;56514;51.816;-0.026;2023-02-13T11:36:23;18.00;18.00;11.25
69222;PMS7003;56514;51.816;-0.026;2023-02-13T11:39:17;14.75;14.75;10.25
69222;PMS7003;56514;51.816;-0.026;2023-02-13T11:42:11;17.75;17.75;11.00
69222;PMS7003;56514;51.816;-0.026;2023-02-13T11:45:21;17.50;17.50;11.50
69222;PMS7003;56514;51.816;-0.026;2023-02-13T11:48:16;16.00;16.00;10.25
69222;PMS7003;56514;51.816;-0.026;2023-02-13T11:51:06;18.25;18.25;11.00
69222;PMS7003;56514;51.816;-0.026;2023-02-13T11:53:51;16.75;16.75;10.75
69222;PMS7003;56514;51.816;-0.026;2023-02-13T11:56:46;20.00;20.00;13.50
69222;PMS7003;56514;51.816;-0.026;2023-02-13T11:59:38;15.25;14.75;10.75
69222;PMS7003;56514;51.816;-0.026;2023-02-13T12:02:28;17.75;17.75;11.00
69222;PMS7003;56514;51.816;-0.026;2023-02-13T12:05:16;15.75;15.75;11.25
69222;PMS7003;56514;51.816;-0.026;2023-02-13T12:08:04;15.25;15.25;9.50
69222;PMS7003;56514;51.816;-0.026;2023-02-13T12:10:52;17.00;17.00;11.50
69222;PMS7003;56514;51.816;-0.026;2023-02-13T12:13:40;15.50;15.50;11.25
69222;PMS7003;56514;51.816;-0.026;2023-02-13T12:16:34;17.75;17.75;9.50
69222;PMS7003;56514;51.816;-0.026;2023-02-13T12:19:35;8.00;8.00;5.00
69222;PMS7003;56514;51.816;-0.026;2023-02-13T12:22:30;20.00;20.00;13.75
69222;PMS7003;56514;51.816;-0.026;2023-02-13T12:28:10;16.75;16.75;12.75
69222;PMS7003;56514;51.816;-0.026;2023-02-13T12:31:05;19.00;17.00;12.00
69222;PMS7003;56514;51.816;-0.026;2023-02-13T12:46:26;22.50;17.50;14.00
69222;PMS7003;56514;51.816;-0.026;2023-02-13T12:55:30;17.75;17.75;13.00
69222;PMS7003;56514;51.816;-0.026;2023-02-13T13:02:10;23.00;23.00;13.75
69222;PMS7003;56514;51.816;-0.026;2023-02-13T13:11:24;17.50;17.50;13.00
69222;PMS7003;56514;51.816;-0.026;2023-02-13T13:14:26;19.00;17.50;13.00
69222;PMS7003;56514;51.816;-0.026;2023-02-13T13:20:43;20.50;20.50;15.25
69222;PMS7003;56514;51.816;-0.026;2023-02-13T13:26:37;18.75;18.75;14.75
69222;PMS7003;56514;51.816;-0.026;2023-02-13T13:29:28;16.75;16.75;13.75
69222;PMS7003;56514;51.816;-0.026;2023-02-13T13:32:19;16.50;16.50;10.75
69222;PMS7003;56514;51.816;-0.026;2023-02-13T13:35:11;12.00;12.00;9.00
69222;PMS7003;56514;51.816;-0.026;2023-02-13T13:40:59;17.00;17.00;13.00
69222;PMS7003;56514;51.816;-0.026;2023-02-13T13:50:03;16.50;14.50;10.75
69222;PMS7003;56514;51.816;-0.026;2023-02-13T13:53:08;14.75;14.75;11.25
69222;PMS7003;56514;51.816;-0.026;2023-02-13T13:58:41;13.00;12.25;8.75
69222;PMS7003;56514;51.816;-0.026;2023-02-13T14:01:30;13.67;13.67;11.33
69222;PMS7003;56514;51.816;-0.026;2023-02-13T14:07:20;17.50;16.50;11.50
69222;PMS7003;56514;51.816;-0.026;2023-02-13T14:13:09;13.00;13.00;8.00
69222;PMS7003;56514;51.816;-0.026;2023-02-13T14:16:19;14.00;14.00;9.00
69222;PMS7003;56514;51.816;-0.026;2023-02-13T14:19:36;13.75;13.75;10.00
69222;PMS7003;56514;51.816;-0.026;2023-02-13T14:25:20;14.50;14.50;9.75
69222;PMS7003;56514;51.816;-0.026;2023-02-13T14:28:17;16.00;16.00;10.00
69222;PMS7003;56514;51.816;-0.026;2023-02-13T14:34:20;15.50;15.50;10.00
69222;PMS7003;56514;51.816;-0.026;2023-02-13T14:37:14;20.75;19.50;13.25
69222;PMS7003;56514;51.816;-0.026;2023-02-13T14:52:19;15.75;15.75;12.00
69222;PMS7003;56514;51.816;-0.026;2023-02-13T14:58:29;17.50;17.50;11.00
69222;PMS7003;56514;51.816;-0.026;2023-02-13T15:04:17;21.00;20.00;14.00
69222;PMS7003;56514;51.816;-0.026;2023-02-13T15:07:04;18.50;18.50;12.75
69222;PMS7003;56514;51.816;-0.026;2023-02-13T15:10:06;23.00;23.00;16.25
69222;PMS7003;56514;51.816;-0.026;2023-02-13T15:13:21;20.00;20.00;14.75
69222;PMS7003;56514;51.816;-0.026;2023-02-13T15:16:10;19.50;19.50;15.00
69222;PMS7003;56514;51.816;-0.026;2023-02-13T15:18:58;21.00;21.00;15.75
69222;PMS7003;56514;51.816;-0.026;2023-02-13T15:21:51;22.50;22.50;15.75
69222;PMS7003;56514;51.816;-0.026;2023-02-13T15:24:45;19.00;19.00;14.25
69222;PMS7003;56514;51.816;-0.026;2023-02-13T15:27:31;21.50;21.50;15.50
69222;PMS7003;56514;51.816;-0.026;2023-02-13T15:30:23;24.25;24.25;17.00
69222;PMS7003;56514;51.816;-0.026;2023-02-13T15:36:03;18.25;18.25;14.50
69222;PMS7003;56514;51.816;-0.026;2023-02-13T15:38:57;23.25;23.25;17.50
69222;PMS7003;56514;51.816;-0.026;2023-02-13T15:41:53;23.25;23.25;16.25
69222;PMS7003;56514;51.816;-0.026;2023-02-13T15:44:40;25.75;25.75;17.00
69222;PMS7003;56514;51.816;-0.026;2023-02-13T15:47:30;26.75;26.75;19.75
69222;PMS7003;56514;51.816;-0.026;2023-02-13T15:53:15;32.75;32.75;19.50
69222;PMS7003;56514;51.816;-0.026;2023-02-13T15:56:03;31.50;31.50;19.25
69222;PMS7003;56514;51.816;-0.026;2023-02-13T15:58:49;27.50;26.75;19.00
69222;PMS7003;56514;51.816;-0.026;2023-02-13T16:01:36;31.25;27.75;18.00
69222;PMS7003;56514;51.816;-0.026;2023-02-13T16:04:22;25.50;25.50;17.00
69222;PMS7003;56514;51.816;-0.026;2023-02-13T16:07:10;26.00;25.50;17.25
69222;PMS7003;56514;51.816;-0.026;2023-02-13T16:10:13;26.75;26.75;18.00
69222;PMS7003;56514;51.816;-0.026;2023-02-13T16:13:00;30.75;26.25;19.50
69222;PMS7003;56514;51.816;-0.026;2023-02-13T16:15:49;29.50;29.50;17.00
69222;PMS7003;56514;51.816;-0.026;2023-02-13T16:18:34;25.00;25.00;16.00
69222;PMS7003;56514;51.816;-0.026;2023-02-13T16:21:22;27.00;27.00;17.50
69222;PMS7003;56514;51.816;-0.026;2023-02-13T16:24:12;29.00;28.00;19.75
69222;PMS7003;56514;51.816;-0.026;2023-02-13T16:26:59;30.75;30.75;18.50
69222;PMS7003;56514;51.816;-0.026;2023-02-13T16:29:55;27.25;27.25;19.50
69222;PMS7003;56514;51.816;-0.026;2023-02-13T16:35:59;30.75;25.75;15.00
69222;PMS7003;56514;51.816;-0.026;2023-02-13T16:39:09;24.00;24.00;14.25
69222;PMS7003;56514;51.816;-0.026;2023-02-13T16:41:56;20.00;20.00;14.25
69222;PMS7003;56514;51.816;-0.026;2023-02-13T16:44:43;20.75;20.75;16.00
69222;PMS7003;56514;51.816;-0.026;2023-02-13T16:47:27;19.00;18.25;11.50
69222;PMS7003;56514;51.816;-0.026;2023-02-13T16:50:13;20.25;20.25;11.75
69222;PMS7003;56514;51.816;-0.026;2023-02-13T16:53:02;19.75;17.25;13.50
69222;PMS7003;56514;51.816;-0.026;2023-02-13T16:55:55;14.50;14.50;11.00
69222;PMS7003;56514;51.816;-0.026;2023-02-13T16:58:43;19.25;19.25;12.50
69222;PMS7003;56514;51.816;-0.026;2023-02-13T17:01:28;18.75;17.25;12.00
69222;PMS7003;56514;51.816;-0.026;2023-02-13T17:04:20;14.50;14.50;12.75
69222;PMS7003;56514;51.816;-0.026;2023-02-13T17:07:11;16.75;16.75;10.50
69222;PMS7003;56514;51.816;-0.026;2023-02-13T17:10:59;16.00;16.00;11.50
69222;PMS7003;56514;51.816;-0.026;2023-02-13T17:13:15;15.50;15.50;8.25
69222;PMS7003;56514;51.816;-0.026;2023-02-13T17:16:03;18.75;17.25;12.75
69222;PMS7003;56514;51.816;-0.026;2023-02-13T17:18:48;20.00;18.75;12.50
69222;PMS7003;56514;51.816;-0.026;2023-02-13T17:21:34;26.25;26.00;15.50
69222;PMS7003;56514;51.816;-0.026;2023-02-13T17:24:19;22.25;21.00;12.00
69222;PMS7003;56514;51.816;-0.026;2023-02-13T17:27:03;12.00;10.25;8.00
69222;PMS7003;56514;51.816;-0.026;2023-02-13T17:29:48;19.25;19.25;11.25
69222;PMS7003;56514;51.816;-0.026;2023-02-13T17:32:33;20.00;20.00;12.00
69222;PMS7003;56514;51.816;-0.026;2023-02-13T17:35:18;20.25;20.25;12.75
69222;PMS7003;56514;51.816;-0.026;2023-02-13T17:38:03;20.00;20.00;11.25
69222;PMS7003;56514;51.816;-0.026;2023-02-13T17:40:49;24.50;23.75;13.75
69222;PMS7003;56514;51.816;-0.026;2023-02-13T17:43:35;34.25;28.50;18.50
69222;PMS7003;56514;51.816;-0.026;2023-02-13T17:46:19;39.33;38.00;22.00
69222;PMS7003;56514;51.816;-0.026;2023-02-13T17:49:05;41.33;37.67;26.33
69222;PMS7003;56514;51.816;-0.026;2023-02-13T17:51:50;35.67;35.67;26.33
69222;PMS7003;56514;51.816;-0.026;2023-02-13T17:54:34;45.67;43.67;25.67
69222;PMS7003;56514;51.816;-0.026;2023-02-13T17:57:19;38.33;36.00;26.33
69222;PMS7003;56514;51.816;-0.026;2023-02-13T18:00:05;41.67;41.67;26.67
69222;PMS7003;56514;51.816;-0.026;2023-02-13T18:02:50;36.33;36.33;25.33
69222;PMS7003;56514;51.816;-0.026;2023-02-13T18:05:35;39.67;39.00;25.00
69222;PMS7003;56514;51.816;-0.026;2023-02-13T18:08:20;34.33;34.33;26.00
69222;PMS7003;56514;51.816;-0.026;2023-02-13T18:11:08;39.67;36.67;24.67
69222;PMS7003;56514;51.816;-0.026;2023-02-13T18:13:54;44.33;39.33;23.33
69222;PMS7003;56514;51.816;-0.026;2023-02-13T18:16:39;31.00;30.00;22.33
69222;PMS7003;56514;51.816;-0.026;2023-02-13T18:19:24;38.67;37.33;26.33
69222;PMS7003;56514;51.816;-0.026;2023-02-13T18:22:09;33.00;31.00;21.33
69222;PMS7003;56514;51.816;-0.026;2023-02-13T18:24:54;27.33;22.67;21.33
69222;PMS7003;56514;51.816;-0.026;2023-02-13T18:27:39;33.00;29.33;21.00